sensor_id;sensor_type;location;lat;lon;timestamp;pressure;altitude;pressure_sealevel;temperature;humidity
36010;BME280;22076;52.182;5.404;2024-02-14T00:01:31;100612.25;;;8.48;100.00
36010;BME280;22076;52.182;5.404;2024-02-14T00:03:58;100617.69;;;8.43;100.00
36010;BME280;22076;52.182;5.404;2024-02-14T00:06:25;100633.53;;;8.38;100.00
36010;BME280;22076;52.182;5.404;2024-02-14T00:08:51;100639.16;;;8.48;100.00
36010;BME280;22076;52.182;5.404;2024-02-14T00:11:18;100640.97;;;8.46;100.00
36010;BME280;22076;52.182;5.404;2024-02-14T00:13:45;100648.66;;;8.49;100.00
36010;BME280;22076;52.182;5.404;2024-02-14T00:16:12;100648.56;;;8.51;100.00
36010;BME280;22076;52.182;5.404;2024-02-14T00:18:39;100655.44;;;8.52;100.00
36010;BME280;22076;52.182;5.404;2024-02-14T00:21:06;100648.50;;;8.52;100.00
36010;BME280;22076;52.182;5.404;2024-02-14T00:23:32;100661.44;;;8.54;100.00
36010;BME280;22076;52.182;5.404;2024-02-14T00:25:58;100662.19;;;8.56;100.00
36010;BME280;22076;52.182;5.404;2024-02-14T00:28:25;100662.03;;;8.59;100.00
36010;BME280;22076;52.182;5.404;2024-02-14T00:30:52;100673.44;;;8.56;100.00
36010;BME280;22076;52.182;5.404;2024-02-14T00:33:20;100686.88;;;8.66;100.00
36010;BME280;22076;52.182;5.404;2024-02-14T00:35:47;100680.66;;;8.69;100.00
36010;BME280;22076;52.182;5.404;2024-02-14T00:38:13;100675.44;;;8.69;100.00
36010;BME280;22076;52.182;5.404;2024-02-14T00:40:40;100680.78;;;8.66;100.00
36010;BME280;22076;52.182;5.404;2024-02-14T00:43:06;100694.97;;;8.60;100.00
36010;BME280;22076;52.182;5.404;2024-02-14T00:45:33;100691.06;;;8.69;100.00
36010;BME280;22076;52.182;5.404;2024-02-14T00:48:01;100687.00;;;8.63;100.00
36010;BME280;22076;52.182;5.404;2024-02-14T00:50:30;100703.47;;;8.64;100.00
36010;BME280;22076;52.182;5.404;2024-02-14T00:52:56;100719.41;;;8.57;100.00
36010;BME280;22076;52.182;5.404;2024-02-14T00:55:23;100727.53;;;8.69;100.00
36010;BME280;22076;52.182;5.404;2024-02-14T00:57:50;100736.97;;;8.71;100.00
36010;BME280;22076;52.182;5.404;2024-02-14T01:00:16;100741.91;;;8.76;100.00
36010;BME280;22076;52.182;5.404;2024-02-14T01:02:43;100743.59;;;8.77;100.00
36010;BME280;22076;52.182;5.404;2024-02-14T01:05:10;100766.28;;;8.75;100.00
36010;BME280;22076;52.182;5.404;2024-02-14T01:07:38;100761.22;;;8.89;100.00
36010;BME280;22076;52.182;5.404;2024-02-14T01:10:05;100772.78;;;8.84;100.00
36010;BME280;22076;52.182;5.404;2024-02-14T01:12:33;100772.00;;;8.82;100.00
36010;BME280;22076;52.182;5.404;2024-02-14T01:14:59;100791.13;;;8.82;100.00
36010;BME280;22076;52.182;5.404;2024-02-14T01:17:26;100775.31;;;8.85;100.00
36010;BME280;22076;52.182;5.404;2024-02-14T01:19:52;100801.06;;;8.91;100.00
36010;BME280;22076;52.182;5.404;2024-02-14T01:22:19;100809.25;;;8.84;100.00
36010;BME280;22076;52.182;5.404;2024-02-14T01:24:47;100812.66;;;8.86;100.00
36010;BME280;22076;52.182;5.404;2024-02-14T01:27:14;100822.22;;;8.85;100.00
36010;BME280;22076;52.182;5.404;2024-02-14T01:29:41;100831.25;;;8.96;100.00
36010;BME280;22076;52.182;5.404;2024-02-14T01:32:08;100834.72;;;8.96;100.00
36010;BME280;22076;52.182;5.404;2024-02-14T01:34:35;100833.81;;;9.15;100.00
36010;BME280;22076;52.182;5.404;2024-02-14T01:37:02;100847.75;;;8.96;100.00
36010;BME280;22076;52.182;5.404;2024-02-14T01:39:28;100849.38;;;8.99;100.00
36010;BME280;22076;52.182;5.404;2024-02-14T01:41:57;100863.06;;;9.02;100.00
36010;BME280;22076;52.182;5.404;2024-02-14T01:44:24;100868.91;;;9.07;100.00
36010;BME280;22076;52.182;5.404;2024-02-14T01:46:50;100877.56;;;9.08;100.00
36010;BME280;22076;52.182;5.404;2024-02-14T01:49:18;100873.72;;;9.15;100.00
36010;BME280;22076;52.182;5.404;2024-02-14T01:51:46;100882.41;;;9.16;100.00
36010;BME280;22076;52.182;5.404;2024-02-14T01:54:15;100884.94;;;9.17;100.00
36010;BME280;22076;52.182;5.404;2024-02-14T01:56:42;100879.84;;;9.14;100.00
36010;BME280;22076;52.182;5.404;2024-02-14T01:59:11;100886.31;;;9.24;100.00
36010;BME280;22076;52.182;5.404;2024-02-14T02:01:37;100883.41;;;9.31;100.00
36010;BME280;22076;52.182;5.404;2024-02-14T02:04:04;100873.97;;;9.28;100.00
36010;BME280;22076;52.182;5.404;2024-02-14T02:06:30;100868.91;;;9.25;100.00
36010;BME280;22076;52.182;5.404;2024-02-14T02:08:57;100868.06;;;9.24;100.00
36010;BME280;22076;52.182;5.404;2024-02-14T02:11:24;100884.25;;;9.31;100.00
36010;BME280;22076;52.182;5.404;2024-02-14T02:13:51;100883.78;;;9.23;100.00
36010;BME280;22076;52.182;5.404;2024-02-14T02:16:19;100904.16;;;9.32;100.00
36010;BME280;22076;52.182;5.404;2024-02-14T02:18:46;100895.31;;;9.36;100.00
36010;BME280;22076;52.182;5.404;2024-02-14T02:21:13;100925.72;;;9.36;100.00
36010;BME280;22076;52.182;5.404;2024-02-14T02:23:41;100922.41;;;9.32;100.00
36010;BME280;22076;52.182;5.404;2024-02-14T02:26:10;100937.94;;;9.35;100.00
36010;BME280;22076;52.182;5.404;2024-02-14T02:28:37;100941.97;;;9.41;100.00
36010;BME280;22076;52.182;5.404;2024-02-14T02:31:04;100948.72;;;9.45;100.00
36010;BME280;22076;52.182;5.404;2024-02-14T02:33:33;100952.50;;;9.39;100.00
36010;BME280;22076;52.182;5.404;2024-02-14T02:36:00;100965.16;;;9.47;100.00
36010;BME280;22076;52.182;5.404;2024-02-14T02:38:26;100975.06;;;9.40;100.00
36010;BME280;22076;52.182;5.404;2024-02-14T02:40:55;100981.03;;;9.42;100.00
36010;BME280;22076;52.182;5.404;2024-02-14T02:43:21;100988.53;;;9.49;100.00
36010;BME280;22076;52.182;5.404;2024-02-14T02:45:48;100997.91;;;9.53;100.00
36010;BME280;22076;52.182;5.404;2024-02-14T02:48:14;100995.47;;;9.50;100.00
36010;BME280;22076;52.182;5.404;2024-02-14T02:50:41;101006.72;;;9.50;100.00
36010;BME280;22076;52.182;5.404;2024-02-14T02:53:09;100999.69;;;9.52;100.00
36010;BME280;22076;52.182;5.404;2024-02-14T02:55:37;101006.03;;;9.47;100.00
36010;BME280;22076;52.182;5.404;2024-02-14T02:58:04;101011.72;;;9.55;100.00
36010;BME280;22076;52.182;5.404;2024-02-14T03:00:32;101017.44;;;9.44;100.00
36010;BME280;22076;52.182;5.404;2024-02-14T03:02:58;101033.34;;;9.57;100.00
36010;BME280;22076;52.182;5.404;2024-02-14T03:05:26;101042.31;;;9.51;100.00
36010;BME280;22076;52.182;5.404;2024-02-14T03:07:52;101044.56;;;9.59;100.00
36010;BME280;22076;52.182;5.404;2024-02-14T03:10:19;101040.72;;;9.49;100.00
36010;BME280;22076;52.182;5.404;2024-02-14T03:12:46;101050.78;;;9.56;100.00
36010;BME280;22076;52.182;5.404;2024-02-14T03:15:15;101060.13;;;9.61;100.00
36010;BME280;22076;52.182;5.404;2024-02-14T03:17:42;101060.22;;;9.59;100.00
36010;BME280;22076;52.182;5.404;2024-02-14T03:20:09;101062.03;;;9.57;100.00
36010;BME280;22076;52.182;5.404;2024-02-14T03:22:38;101072.47;;;9.57;100.00
36010;BME280;22076;52.182;5.404;2024-02-14T03:25:08;101079.91;;;9.65;100.00
36010;BME280;22076;52.182;5.404;2024-02-14T03:27:35;101082.53;;;9.65;100.00
36010;BME280;22076;52.182;5.404;2024-02-14T03:30:02;101093.97;;;9.62;100.00
36010;BME280;22076;52.182;5.404;2024-02-14T03:32:31;101091.75;;;9.72;100.00
36010;BME280;22076;52.182;5.404;2024-02-14T03:34:58;101100.59;;;9.69;100.00
36010;BME280;22076;52.182;5.404;2024-02-14T03:37:25;101098.06;;;9.68;100.00
36010;BME280;22076;52.182;5.404;2024-02-14T03:39:52;101100.75;;;9.66;100.00
36010;BME280;22076;52.182;5.404;2024-02-14T03:42:18;101108.34;;;9.71;100.00
36010;BME280;22076;52.182;5.404;2024-02-14T03:44:45;101112.72;;;9.70;100.00
36010;BME280;22076;52.182;5.404;2024-02-14T03:47:12;101115.94;;;9.75;100.00
36010;BME280;22076;52.182;5.404;2024-02-14T03:49:40;101127.06;;;9.79;100.00
36010;BME280;22076;52.182;5.404;2024-02-14T03:52:07;101120.78;;;9.83;100.00
36010;BME280;22076;52.182;5.404;2024-02-14T03:54:35;101126.03;;;9.83;100.00
36010;BME280;22076;52.182;5.404;2024-02-14T03:57:01;101129.38;;;9.85;100.00
36010;BME280;22076;52.182;5.404;2024-02-14T03:59:29;101146.72;;;9.86;100.00
36010;BME280;22076;52.182;5.404;2024-02-14T04:01:56;101149.50;;;9.83;100.00
36010;BME280;22076;52.182;5.404;2024-02-14T04:04:23;101152.88;;;9.85;100.00
36010;BME280;22076;52.182;5.404;2024-02-14T04:06:51;101159.41;;;9.94;100.00
36010;BME280;22076;52.182;5.404;2024-02-14T04:09:17;101163.84;;;9.92;100.00
36010;BME280;22076;52.182;5.404;2024-02-14T04:11:44;101168.06;;;9.95;100.00
36010;BME280;22076;52.182;5.404;2024-02-14T04:14:10;101167.41;;;9.91;100.00
36010;BME280;22076;52.182;5.404;2024-02-14T04:16:37;101178.69;;;9.91;100.00
36010;BME280;22076;52.182;5.404;2024-02-14T04:19:03;101186.44;;;9.93;100.00
36010;BME280;22076;52.182;5.404;2024-02-14T04:21:31;101188.03;;;9.96;100.00
36010;BME280;22076;52.182;5.404;2024-02-14T04:23:59;101189.03;;;9.93;100.00
36010;BME280;22076;52.182;5.404;2024-02-14T04:26:25;101190.88;;;9.91;100.00
36010;BME280;22076;52.182;5.404;2024-02-14T04:28:52;101208.75;;;9.99;100.00
36010;BME280;22076;52.182;5.404;2024-02-14T04:31:18;101213.31;;;9.95;100.00
36010;BME280;22076;52.182;5.404;2024-02-14T04:33:45;101221.69;;;10.02;100.00
36010;BME280;22076;52.182;5.404;2024-02-14T04:36:15;101228.72;;;10.00;100.00
36010;BME280;22076;52.182;5.404;2024-02-14T04:38:42;101233.88;;;10.01;100.00
36010;BME280;22076;52.182;5.404;2024-02-14T04:41:10;101239.72;;;10.06;100.00
36010;BME280;22076;52.182;5.404;2024-02-14T04:43:37;101247.44;;;10.09;100.00
36010;BME280;22076;52.182;5.404;2024-02-14T04:46:03;101257.00;;;10.09;100.00
36010;BME280;22076;52.182;5.404;2024-02-14T04:48:32;101248.97;;;10.14;100.00
36010;BME280;22076;52.182;5.404;2024-02-14T04:50:58;101260.19;;;10.16;100.00
36010;BME280;22076;52.182;5.404;2024-02-14T04:53:25;101253.19;;;10.16;100.00
36010;BME280;22076;52.182;5.404;2024-02-14T04:55:51;101262.31;;;10.07;100.00
36010;BME280;22076;52.182;5.404;2024-02-14T04:58:20;101257.63;;;10.14;100.00
36010;BME280;22076;52.182;5.404;2024-02-14T05:00:46;101273.25;;;10.16;100.00
36010;BME280;22076;52.182;5.404;2024-02-14T05:03:13;101269.78;;;10.15;100.00
36010;BME280;22076;52.182;5.404;2024-02-14T05:05:40;101274.91;;;10.17;100.00
36010;BME280;22076;52.182;5.404;2024-02-14T05:08:07;101282.69;;;10.18;100.00
36010;BME280;22076;52.182;5.404;2024-02-14T05:10:33;101283.75;;;10.14;100.00
36010;BME280;22076;52.182;5.404;2024-02-14T05:13:00;101293.44;;;10.12;100.00
36010;BME280;22076;52.182;5.404;2024-02-14T05:15:28;101284.69;;;10.13;100.00
36010;BME280;22076;52.182;5.404;2024-02-14T05:17:55;101300.19;;;10.16;100.00
36010;BME280;22076;52.182;5.404;2024-02-14T05:20:22;101306.19;;;10.18;100.00
36010;BME280;22076;52.182;5.404;2024-02-14T05:22:48;101313.25;;;10.16;100.00
36010;BME280;22076;52.182;5.404;2024-02-14T05:25:15;101317.56;;;10.17;100.00
36010;BME280;22076;52.182;5.404;2024-02-14T05:27:41;101314.25;;;10.14;100.00
36010;BME280;22076;52.182;5.404;2024-02-14T05:30:08;101322.50;;;10.23;100.00
36010;BME280;22076;52.182;5.404;2024-02-14T05:32:36;101326.22;;;10.18;100.00
36010;BME280;22076;52.182;5.404;2024-02-14T05:35:03;101338.22;;;10.22;100.00
36010;BME280;22076;52.182;5.404;2024-02-14T05:37:31;101347.97;;;10.18;100.00
36010;BME280;22076;52.182;5.404;2024-02-14T05:39:57;101354.75;;;10.22;100.00
36010;BME280;22076;52.182;5.404;2024-02-14T05:42:24;101360.31;;;10.15;100.00
36010;BME280;22076;52.182;5.404;2024-02-14T05:44:50;101361.72;;;10.22;100.00
36010;BME280;22076;52.182;5.404;2024-02-14T05:47:18;101351.34;;;10.20;100.00
36010;BME280;22076;52.182;5.404;2024-02-14T05:49:46;101364.22;;;10.25;100.00
36010;BME280;22076;52.182;5.404;2024-02-14T05:52:12;101362.66;;;10.21;100.00
36010;BME280;22076;52.182;5.404;2024-02-14T05:54:41;101367.94;;;10.19;100.00
36010;BME280;22076;52.182;5.404;2024-02-14T05:57:07;101372.13;;;10.23;100.00
36010;BME280;22076;52.182;5.404;2024-02-14T05:59:34;101379.16;;;10.21;100.00
36010;BME280;22076;52.182;5.404;2024-02-14T06:02:00;101377.72;;;10.14;100.00
36010;BME280;22076;52.182;5.404;2024-02-14T06:04:28;101382.25;;;10.30;100.00
36010;BME280;22076;52.182;5.404;2024-02-14T06:06:56;101398.00;;;10.28;100.00
36010;BME280;22076;52.182;5.404;2024-02-14T06:09:23;101391.06;;;10.27;100.00
36010;BME280;22076;52.182;5.404;2024-02-14T06:11:50;101396.53;;;10.22;100.00
36010;BME280;22076;52.182;5.404;2024-02-14T06:14:17;101407.53;;;10.29;100.00
36010;BME280;22076;52.182;5.404;2024-02-14T06:16:44;101413.47;;;10.33;100.00
36010;BME280;22076;52.182;5.404;2024-02-14T06:19:10;101411.63;;;10.35;100.00
36010;BME280;22076;52.182;5.404;2024-02-14T06:21:37;101427.69;;;10.46;100.00
36010;BME280;22076;52.182;5.404;2024-02-14T06:24:06;101421.66;;;10.44;100.00
36010;BME280;22076;52.182;5.404;2024-02-14T06:26:32;101414.06;;;10.39;100.00
36010;BME280;22076;52.182;5.404;2024-02-14T06:28:59;101406.00;;;10.44;100.00
36010;BME280;22076;52.182;5.404;2024-02-14T06:31:25;101419.00;;;10.46;100.00
36010;BME280;22076;52.182;5.404;2024-02-14T06:33:52;101418.94;;;10.47;100.00
36010;BME280;22076;52.182;5.404;2024-02-14T06:36:18;101419.94;;;10.45;100.00
36010;BME280;22076;52.182;5.404;2024-02-14T06:38:46;101423.28;;;10.47;100.00
36010;BME280;22076;52.182;5.404;2024-02-14T06:41:14;101414.41;;;10.51;100.00
36010;BME280;22076;52.182;5.404;2024-02-14T06:43:41;101417.22;;;10.46;100.00
36010;BME280;22076;52.182;5.404;2024-02-14T06:46:07;101427.75;;;10.45;100.00
36010;BME280;22076;52.182;5.404;2024-02-14T06:48:35;101421.66;;;10.44;100.00
36010;BME280;22076;52.182;5.404;2024-02-14T06:51:02;101438.22;;;10.45;100.00
36010;BME280;22076;52.182;5.404;2024-02-14T06:53:28;101440.59;;;10.49;100.00
36010;BME280;22076;52.182;5.404;2024-02-14T06:55:56;101436.31;;;10.48;100.00
36010;BME280;22076;52.182;5.404;2024-02-14T06:58:24;101444.06;;;10.50;100.00
36010;BME280;22076;52.182;5.404;2024-02-14T07:00:50;101437.41;;;10.43;100.00
36010;BME280;22076;52.182;5.404;2024-02-14T07:03:18;101445.06;;;10.47;100.00
36010;BME280;22076;52.182;5.404;2024-02-14T07:05:45;101447.75;;;10.46;100.00
36010;BME280;22076;52.182;5.404;2024-02-14T07:08:11;101463.25;;;10.49;100.00
36010;BME280;22076;52.182;5.404;2024-02-14T07:10:38;101471.25;;;10.46;100.00
36010;BME280;22076;52.182;5.404;2024-02-14T07:13:07;101483.25;;;10.50;100.00
36010;BME280;22076;52.182;5.404;2024-02-14T07:15:35;101492.91;;;10.86;100.00
36010;BME280;22076;52.182;5.404;2024-02-14T07:18:02;101483.09;;;10.53;100.00
36010;BME280;22076;52.182;5.404;2024-02-14T07:20:29;101482.53;;;10.46;100.00
36010;BME280;22076;52.182;5.404;2024-02-14T07:22:55;101490.19;;;10.51;100.00
36010;BME280;22076;52.182;5.404;2024-02-14T07:25:22;101490.38;;;10.46;100.00
36010;BME280;22076;52.182;5.404;2024-02-14T07:27:49;101499.00;;;10.48;100.00
36010;BME280;22076;52.182;5.404;2024-02-14T07:30:16;101508.47;;;10.51;100.00
36010;BME280;22076;52.182;5.404;2024-02-14T07:32:45;101513.63;;;10.52;100.00
36010;BME280;22076;52.182;5.404;2024-02-14T07:35:12;101513.75;;;10.49;100.00
36010;BME280;22076;52.182;5.404;2024-02-14T07:37:39;101530.13;;;10.53;100.00
36010;BME280;22076;52.182;5.404;2024-02-14T07:40:06;101535.25;;;10.56;100.00
36010;BME280;22076;52.182;5.404;2024-02-14T07:42:33;101537.91;;;10.54;100.00
36010;BME280;22076;52.182;5.404;2024-02-14T07:45:00;101555.50;;;10.51;100.00
36010;BME280;22076;52.182;5.404;2024-02-14T07:47:29;101558.75;;;10.56;100.00
36010;BME280;22076;52.182;5.404;2024-02-14T07:49:57;101560.41;;;10.57;100.00
36010;BME280;22076;52.182;5.404;2024-02-14T07:52:24;101564.88;;;10.55;100.00
36010;BME280;22076;52.182;5.404;2024-02-14T07:54:52;101574.34;;;10.57;100.00
36010;BME280;22076;52.182;5.404;2024-02-14T07:57:22;101574.44;;;10.56;100.00
36010;BME280;22076;52.182;5.404;2024-02-14T07:59:52;101573.50;;;10.57;100.00
36010;BME280;22076;52.182;5.404;2024-02-14T08:02:20;101592.84;;;10.53;100.00
36010;BME280;22076;52.182;5.404;2024-02-14T08:04:47;101596.88;;;10.60;100.00
36010;BME280;22076;52.182;5.404;2024-02-14T08:07:16;101609.00;;;10.61;100.00
36010;BME280;22076;52.182;5.404;2024-02-14T08:09:42;101617.66;;;10.63;100.00
36010;BME280;22076;52.182;5.404;2024-02-14T08:12:09;101625.47;;;10.63;100.00
36010;BME280;22076;52.182;5.404;2024-02-14T08:14:36;101632.16;;;10.70;100.00
36010;BME280;22076;52.182;5.404;2024-02-14T08:17:03;101630.19;;;10.76;100.00
36010;BME280;22076;52.182;5.404;2024-02-14T08:19:30;101626.69;;;10.75;100.00
36010;BME280;22076;52.182;5.404;2024-02-14T08:21:56;101635.44;;;10.74;100.00
36010;BME280;22076;52.182;5.404;2024-02-14T08:24:27;101633.06;;;10.69;100.00
36010;BME280;22076;52.182;5.404;2024-02-14T08:26:54;101633.06;;;10.69;100.00
36010;BME280;22076;52.182;5.404;2024-02-14T08:29:21;101637.56;;;10.66;100.00
36010;BME280;22076;52.182;5.404;2024-02-14T08:31:48;101639.91;;;10.72;100.00
36010;BME280;22076;52.182;5.404;2024-02-14T08:34:15;101637.38;;;10.70;100.00
36010;BME280;22076;52.182;5.404;2024-02-14T08:36:42;101646.78;;;10.74;100.00
36010;BME280;22076;52.182;5.404;2024-02-14T08:39:10;101658.47;;;10.66;100.00
36010;BME280;22076;52.182;5.404;2024-02-14T08:41:38;101667.78;;;10.71;100.00
36010;BME280;22076;52.182;5.404;2024-02-14T08:44:08;101664.28;;;10.72;100.00
36010;BME280;22076;52.182;5.404;2024-02-14T08:46:35;101672.91;;;10.74;100.00
36010;BME280;22076;52.182;5.404;2024-02-14T08:49:02;101662.66;;;10.70;100.00
36010;BME280;22076;52.182;5.404;2024-02-14T08:51:33;101671.84;;;10.79;100.00
36010;BME280;22076;52.182;5.404;2024-02-14T08:54:00;101675.13;;;10.84;100.00
36010;BME280;22076;52.182;5.404;2024-02-14T08:56:30;101671.59;;;10.85;100.00
36010;BME280;22076;52.182;5.404;2024-02-14T08:59:00;101670.63;;;10.87;100.00
36010;BME280;22076;52.182;5.404;2024-02-14T09:01:27;101664.44;;;10.88;100.00
36010;BME280;22076;52.182;5.404;2024-02-14T09:03:54;101667.91;;;10.89;100.00
36010;BME280;22076;52.182;5.404;2024-02-14T09:06:21;101669.81;;;10.85;100.00
36010;BME280;22076;52.182;5.404;2024-02-14T09:12:06;101667.19;;;10.85;100.00
36010;BME280;22076;52.182;5.404;2024-02-14T09:14:35;101682.88;;;10.85;100.00
36010;BME280;22076;52.182;5.404;2024-02-14T09:17:01;101688.19;;;10.84;100.00
36010;BME280;22076;52.182;5.404;2024-02-14T09:19:28;101698.56;;;10.85;100.00
36010;BME280;22076;52.182;5.404;2024-02-14T09:21:55;101702.97;;;10.85;100.00
36010;BME280;22076;52.182;5.404;2024-02-14T09:24:22;101714.91;;;10.90;100.00
36010;BME280;22076;52.182;5.404;2024-02-14T09:30:12;101727.66;;;10.98;100.00
36010;BME280;22076;52.182;5.404;2024-02-14T09:32:39;101738.19;;;10.97;100.00
36010;BME280;22076;52.182;5.404;2024-02-14T09:35:07;101728.69;;;10.94;100.00
36010;BME280;22076;52.182;5.404;2024-02-14T09:37:33;101732.81;;;11.00;100.00
36010;BME280;22076;52.182;5.404;2024-02-14T09:40:00;101735.34;;;11.01;100.00
36010;BME280;22076;52.182;5.404;2024-02-14T09:42:37;101729.22;;;11.02;100.00
36010;BME280;22076;52.182;5.404;2024-02-14T09:45:06;101737.78;;;11.06;100.00
36010;BME280;22076;52.182;5.404;2024-02-14T09:47:35;101732.63;;;11.04;100.00
36010;BME280;22076;52.182;5.404;2024-02-14T09:50:06;101742.81;;;11.11;100.00
36010;BME280;22076;52.182;5.404;2024-02-14T09:52:36;101739.41;;;11.08;100.00
36010;BME280;22076;52.182;5.404;2024-02-14T09:55:06;101740.66;;;11.00;100.00
36010;BME280;22076;52.182;5.404;2024-02-14T09:57:33;101738.91;;;11.00;100.00
36010;BME280;22076;52.182;5.404;2024-02-14T10:00:01;101754.44;;;11.03;100.00
36010;BME280;22076;52.182;5.404;2024-02-14T10:02:32;101753.47;;;11.06;100.00
36010;BME280;22076;52.182;5.404;2024-02-14T10:05:04;101752.66;;;11.04;100.00
36010;BME280;22076;52.182;5.404;2024-02-14T10:07:39;101768.44;;;11.02;100.00
36010;BME280;22076;52.182;5.404;2024-02-14T10:10:06;101774.53;;;11.03;100.00
36010;BME280;22076;52.182;5.404;2024-02-14T10:12:34;101782.16;;;11.07;100.00
36010;BME280;22076;52.182;5.404;2024-02-14T10:15:01;101782.03;;;11.11;100.00
36010;BME280;22076;52.182;5.404;2024-02-14T10:17:28;101780.41;;;11.08;100.00
36010;BME280;22076;52.182;5.404;2024-02-14T10:19:58;101784.59;;;11.12;100.00
36010;BME280;22076;52.182;5.404;2024-02-14T10:22:32;101786.47;;;11.08;100.00
36010;BME280;22076;52.182;5.404;2024-02-14T10:24:59;101796.78;;;11.12;100.00
36010;BME280;22076;52.182;5.404;2024-02-14T10:27:29;101804.38;;;11.18;100.00
36010;BME280;22076;52.182;5.404;2024-02-14T10:29:56;101805.28;;;11.17;100.00
36010;BME280;22076;52.182;5.404;2024-02-14T10:32:24;101810.44;;;11.18;100.00
36010;BME280;22076;52.182;5.404;2024-02-14T10:34:51;101816.53;;;11.19;100.00
36010;BME280;22076;52.182;5.404;2024-02-14T10:37:18;101808.97;;;11.13;100.00
36010;BME280;22076;52.182;5.404;2024-02-14T10:39:49;101818.75;;;11.07;100.00
36010;BME280;22076;52.182;5.404;2024-02-14T10:42:18;101819.34;;;11.14;100.00
36010;BME280;22076;52.182;5.404;2024-02-14T10:44:45;101834.94;;;11.17;100.00
36010;BME280;22076;52.182;5.404;2024-02-14T10:47:19;101847.06;;;11.18;100.00
36010;BME280;22076;52.182;5.404;2024-02-14T10:49:48;101855.13;;;11.14;100.00
36010;BME280;22076;52.182;5.404;2024-02-14T10:52:17;101864.47;;;11.19;100.00
36010;BME280;22076;52.182;5.404;2024-02-14T10:54:52;101866.66;;;11.30;100.00
36010;BME280;22076;52.182;5.404;2024-02-14T10:57:24;101872.78;;;11.29;100.00
36010;BME280;22076;52.182;5.404;2024-02-14T10:59:53;101867.72;;;11.24;100.00
36010;BME280;22076;52.182;5.404;2024-02-14T11:02:20;101876.13;;;11.33;100.00
36010;BME280;22076;52.182;5.404;2024-02-14T11:04:49;101880.56;;;11.31;100.00
36010;BME280;22076;52.182;5.404;2024-02-14T11:07:20;101875.97;;;11.36;100.00
36010;BME280;22076;52.182;5.404;2024-02-14T11:09:48;101875.19;;;11.34;100.00
36010;BME280;22076;52.182;5.404;2024-02-14T11:12:32;101878.66;;;11.34;100.00
36010;BME280;22076;52.182;5.404;2024-02-14T11:15:00;101888.16;;;11.37;100.00
36010;BME280;22076;52.182;5.404;2024-02-14T11:17:26;101885.22;;;11.45;100.00
36010;BME280;22076;52.182;5.404;2024-02-14T11:19:53;101887.59;;;11.49;100.00
36010;BME280;22076;52.182;5.404;2024-02-14T11:22:21;101884.56;;;11.39;100.00
36010;BME280;22076;52.182;5.404;2024-02-14T11:24:48;101897.50;;;11.43;100.00
36010;BME280;22076;52.182;5.404;2024-02-14T11:27:18;101896.50;;;11.45;100.00
36010;BME280;22076;52.182;5.404;2024-02-14T11:29:53;101891.84;;;11.52;100.00
36010;BME280;22076;52.182;5.404;2024-02-14T11:32:22;101886.84;;;11.47;100.00
36010;BME280;22076;52.182;5.404;2024-02-14T11:34:57;101895.53;;;11.48;100.00
36010;BME280;22076;52.182;5.404;2024-02-14T11:37:27;101899.19;;;11.44;100.00
36010;BME280;22076;52.182;5.404;2024-02-14T11:39:54;101903.72;;;11.40;100.00
36010;BME280;22076;52.182;5.404;2024-02-14T11:42:23;101911.63;;;11.38;100.00
36010;BME280;22076;52.182;5.404;2024-02-14T11:44:53;101921.13;;;11.41;100.00
36010;BME280;22076;52.182;5.404;2024-02-14T11:47:21;101920.47;;;11.36;100.00
36010;BME280;22076;52.182;5.404;2024-02-14T11:49:48;101924.66;;;11.40;100.00
36010;BME280;22076;52.182;5.404;2024-02-14T11:52:15;101931.66;;;11.39;100.00
36010;BME280;22076;52.182;5.404;2024-02-14T11:54:46;101938.53;;;11.42;100.00
36010;BME280;22076;52.182;5.404;2024-02-14T11:57:17;101944.75;;;11.39;100.00
36010;BME280;22076;52.182;5.404;2024-02-14T11:59:44;101947.34;;;11.39;100.00
36010;BME280;22076;52.182;5.404;2024-02-14T12:02:14;101951.72;;;11.39;100.00
36010;BME280;22076;52.182;5.404;2024-02-14T12:04:41;101960.16;;;11.46;100.00
36010;BME280;22076;52.182;5.404;2024-02-14T12:07:08;101957.19;;;11.55;100.00
36010;BME280;22076;52.182;5.404;2024-02-14T12:09:36;101966.66;;;11.57;100.00
36010;BME280;22076;52.182;5.404;2024-02-14T12:12:04;101964.38;;;11.50;100.00
36010;BME280;22076;52.182;5.404;2024-02-14T12:14:32;101964.97;;;11.56;100.00
36010;BME280;22076;52.182;5.404;2024-02-14T12:17:00;101955.88;;;11.65;100.00
36010;BME280;22076;52.182;5.404;2024-02-14T12:19:29;101966.19;;;11.68;100.00
36010;BME280;22076;52.182;5.404;2024-02-14T12:21:56;101955.06;;;11.63;100.00
36010;BME280;22076;52.182;5.404;2024-02-14T12:24:28;101957.69;;;11.63;100.00
36010;BME280;22076;52.182;5.404;2024-02-14T12:26:55;101960.31;;;11.63;100.00
36010;BME280;22076;52.182;5.404;2024-02-14T12:29:23;101953.84;;;11.72;100.00
36010;BME280;22076;52.182;5.404;2024-02-14T12:31:50;101955.47;;;11.74;100.00
36010;BME280;22076;52.182;5.404;2024-02-14T12:34:17;101936.50;;;11.69;100.00
36010;BME280;22076;52.182;5.404;2024-02-14T12:36:47;101940.59;;;11.75;100.00
36010;BME280;22076;52.182;5.404;2024-02-14T12:39:15;101943.22;;;11.75;100.00
36010;BME280;22076;52.182;5.404;2024-02-14T12:41:43;101948.44;;;11.75;100.00
36010;BME280;22076;52.182;5.404;2024-02-14T12:44:10;101953.19;;;11.67;100.00
36010;BME280;22076;52.182;5.404;2024-02-14T12:46:37;101967.91;;;11.69;100.00
36010;BME280;22076;52.182;5.404;2024-02-14T12:49:04;101977.66;;;11.66;100.00
36010;BME280;22076;52.182;5.404;2024-02-14T12:51:31;101986.34;;;11.66;100.00